Yichuan, China
Current Conditions -  °F | °C
As of 7:00 PM on Friday 31 Oct 2014 (Local Time) from ZHCC Reporting Station
Haze Haze  
Wind Chill: 61°   Ceiling: Unl
Heat Index: 61°   Visibility: 1.2mi
Dew Point: 46°   Wind: 2mph
Humidity: 59%   Direction: NA
Pressure: 30.09"   Gusts: NA
Location:  34.42°N, 112.43°E
Report Text: ZHCC 311100Z VRB01MPS 2000 HZ NSC 16/08 Q1019 NOSIG
Loading
Personal Weather Stations






























Interactive Weather Map
Tropical Storm Tracking
New forecast layout! Learn more

10-Day Weather Forecast

Advertisements
Track Severe Weather on mobile